Pont-Rouge, Canada
Current Conditions -  °F | °C
As of 11:00 PM on Saturday 20 Dec 2014 (Local Time) from CYOY Reporting Station
Overcast Overcast  
Wind Chill: 18°   Ceiling: 800
Heat Index: 18°   Visibility: 9mi
Dew Point: 14°   Wind: 3mph
Humidity: 86%   Direction: 70°ENE
Pressure: 30.34"   Gusts: NA
Location:  46.75°N, 71.7°W
Report Text: CYOY 210400Z AUTO 07003KT 010V100 9SM OVC008 M08/M10 A3034 RMKSLP288
Loading
Personal Weather Stations






























Interactive Weather Map New forecast layout! Learn more

10-Day Weather Forecast

Advertisements
Track Severe Weather on mobile